Morton, Indiana
Current Conditions -  °F | °C
As of 5:15 AM on Thursday 29 Jan 2015 (Local Time) from K4I7 Reporting Station
Clear Clear  
Wind Chill: 33°   Ceiling: Unl
Heat Index: 39°   Visibility: 10mi
Dew Point: 28°   Wind: 9mph
Humidity: 65%   Direction: 180°S
Pressure: 29.8"   Gusts: NA
Location:  39.6767°N, 86.9214°W
Report Text: K4I7 291015Z AUTO 18008KT 10SM CLR 04/M02 A2980 RMK AO2
Loading
Personal Weather Stations






























Interactive Weather Map New forecast layout! Learn more

10-Day Weather Forecast

Advertisements
Track Severe Weather on mobile